Metar z połowy godziny Komunikat METAR ze strony awiacja.imgw.pl Metar G30 EPOK METAR EPOK 170900Z 13009KT CAVOK 23/17 Q1018 RMK 231 067 1/1 =